メインページ
METAR-TAF:

METAR-TAF

空港 :

テヘラン, イラン

メヘラーバード国際空港

緯度: 35-41N, 経度: 051-21E, 海抜: 1204m

現時点の気象観測

当レポートは29分前の05:30(UTC)に作成
南/南西の風 6kt
気温 28°C
湿度 28%
気圧 1020 hPa
視程10km以上
1,500メートル以下は雲なし、積乱雲なし

METAR: OIII 200530Z 21006KT CAVOK 28/08 Q1019 A3012 NOSIG

時間: 10:29 (05:59 UTC)

予報

当レポートは6時間49分前の23:10(UTC)に作成
予報は20日の 00時(UTC)から 21日の 06時(UTC)まで有効
北西の風 6kt
視程10km以上
1,500メートル以下は雲なし、積乱雲なし
20日の 08時(UTC)から 20日の 10時(UTC)まで徐々に
の風 10kt
高度4000ftの雲はほとんどない
20日の 14時(UTC)から 20日の 16時(UTC)まで徐々に
西/南西の風 8kt

TAF: OIII 192310Z 2000/2106 32003MPS CAVOK BECMG 2008/2010 17005MPS FEW040 BECMG 2014/2016 24004MPS

4,000以上の空港の気象観測と天気予報(METAR報とTAF報)

利用可能な観測所は地図上に黄色い丸と赤い丸で示す。

丸の上にカーソルを重ねると観測所名を参照できる。

次にクリックすると気象観測と天気予報を参照できる。

マップの切り替え:黒色「×」印の緑ボタンをクリックして拡大、「-」印の緑ボタンをクリックして縮小、緑色の三角印をクリックして隣りの地図に切り替え


METAR-TAF: